Witherbee, New York
Current Conditions -  °F | °C
As of 3:55 AM on Sunday 23 Nov 2014 (Local Time) from K6B0 Reporting Station
Overcast Overcast  
Wind Chill: 34°   Ceiling: 2400
Heat Index: 40°   Visibility: 10mi
Dew Point: 38°   Wind: 9mph
Humidity: 91%   Direction: 170°S
Pressure: 30.01"   Gusts: NA
Location:  44.09°N, 73.53°W
Report Text: K6B0 230855Z AUTO 17008KT 100V190 10SM OVC024 05/03 A3001 RMK AO2 60001 T00450032
Loading
Personal Weather Stations






























Interactive Weather Map New forecast layout! Learn more

10-Day Weather Forecast

Advertisements
Track Severe Weather on mobile